Salten — LMFM — position and weather

sailwx.info

Track history (hours):
 
Tides and Currents Weather Stations Pressure Air Temp Water Temp Dewpoint Dewpoint Depression Visibility Wind Speed Wind Dir Waves Ship Positions

Salten

Last reported at 2017-Aug-18 13:31 UTC. Time now 2017-Aug-18 14:29 UTC.
Position N 67°22' E 014°28'.

Length 41 m; draft 2 m.

Type: High speed craft. MMSI: 259387000.

Date/timePositionNaut miles runAvg speedWind from/ knotsBaromVisibWave heightAir tempDewpointWater temp
2017-Aug-18 13:31N 67°22' E 014°28'510.4
2017-Aug-18 13:00N 67°17' E 014°23'0 0.1
2017-Aug-18 12:30N 67°17' E 014°23'0 0.5
2017-Aug-18 12:00N 67°17' E 014°22'0 0.0
2017-Aug-18 11:30N 67°17' E 014°22'0 0.0
2017-Aug-18 11:00N 67°17' E 014°22'0 0.0
2017-Aug-18 10:30N 67°17' E 014°22'0 0.0
2017-Aug-18 10:00N 67°17' E 014°22'0 0.0
2017-Aug-18 09:30N 67°17' E 014°22'0 0.0
2017-Aug-18 09:00N 67°17' E 014°22'0 0.0
2017-Aug-18 08:30N 67°17' E 014°22'0 0.5
2017-Aug-18 08:01N 67°17' E 014°22'1529.2
2017-Aug-18 07:30N 67°30' E 014°39'1428.2
2017-Aug-18 07:00N 67°44' E 014°46'612.8
2017-Aug-18 06:30N 67°50' E 014°47'1019.2
2017-Aug-18 06:00N 67°54' E 015°11'714.6
2017-Aug-18 05:30N 68°01' E 015°20'1428.6
2017-Aug-18 05:00N 68°08' E 014°47'815.5
2017-Aug-18 04:30N 68°14' E 014°34'0 0.0
2017-Aug-18 04:00N 68°14' E 014°34'0 0.0
2017-Aug-18 03:30N 68°14' E 014°34'0 0.0
2017-Aug-18 03:00N 68°14' E 014°34'0 0.0
2017-Aug-18 02:30N 68°14' E 014°34'0 0.0
2017-Aug-18 02:00N 68°14' E 014°34'0 0.0
2017-Aug-18 01:30N 68°14' E 014°34'0 0.0
2017-Aug-18 01:00N 68°14' E 014°34'0 0.0
2017-Aug-18 00:30N 68°14' E 014°34'0 0.0
2017-Aug-18 00:00N 68°14' E 014°34'0 0.0
2017-Aug-17 23:30N 68°14' E 014°34'0 0.0
2017-Aug-17 23:00N 68°14' E 014°34'0 0.0
2017-Aug-17 22:30N 68°14' E 014°34'0 0.0
2017-Aug-17 22:00N 68°14' E 014°34'0 0.0
2017-Aug-17 21:30N 68°14' E 014°34'0 0.0
2017-Aug-17 20:59N 68°14' E 014°34'0 0.0
2017-Aug-17 20:30N 68°14' E 014°34'0 0.0
2017-Aug-17 20:00N 68°14' E 014°34'3 2.6
2017-Aug-17 18:41N 68°11' E 014°38'1 6.2
2017-Aug-17 18:30N 68°10' E 014°40'1223.7
2017-Aug-17 18:00N 68°04' E 015°07'918.1
2017-Aug-17 17:30N 67°56' E 015°20'1019.4
2017-Aug-17 17:00N 67°54' E 014°55'918.7
2017-Aug-17 16:30N 67°45' E 014°46'1020.7
2017-Aug-17 16:00N 67°35' E 014°43'1428.7
2017-Aug-17 15:31N 67°22' E 014°29'611.1
2017-Aug-17 15:00N 67°17' E 014°22'0 0.0
2017-Aug-17 14:30N 67°17' E 014°22'0 0.0
2017-Aug-17 14:00N 67°17' E 014°22'0 0.0
2017-Aug-17 13:30N 67°17' E 014°22'0 0.0
2017-Aug-17 13:00N 67°17' E 014°22'0 0.0
2017-Aug-17 12:30N 67°17' E 014°22'0 0.0
2017-Aug-17 12:00N 67°17' E 014°22'0 0.0
2017-Aug-17 11:30N 67°17' E 014°22'0 0.0
2017-Aug-17 11:00N 67°17' E 014°22'0 0.0
2017-Aug-17 10:30N 67°17' E 014°22'0 0.2
2017-Aug-17 10:00N 67°17' E 014°22'1019.1
2017-Aug-17 09:31N 67°11' E 014°05'1325.6
2017-Aug-17 09:00N 67°01' E 013°42'816.2
2017-Aug-17 08:30N 66°54' E 013°32'611.5
2017-Aug-17 08:00N 66°48' E 013°29'816.2
2017-Aug-17 07:30N 66°43' E 013°12'4 8.8
2017-Aug-17 07:00N 66°39' E 013°08'816.4
2017-Aug-17 06:30N 66°32' E 012°58'918.3
2017-Aug-17 06:00N 66°24' E 012°50'1224.2
2017-Aug-17 05:30N 66°12' E 012°60'1122.5
2017-Aug-17 05:00N 66°05' E 012°38'4 0.4
2017-Aug-16 19:53N 66°01' E 012°38'2 4.1
2017-Aug-16 19:30N 66°03' E 012°38'1020.7
2017-Aug-16 19:00N 66°10' E 012°57'1121.2
2017-Aug-16 18:30N 66°20' E 012°60'611.1
2017-Aug-16 18:00N 66°24' E 012°50'714.7
2017-Aug-16 17:30N 66°31' E 013°00'917.7
2017-Aug-16 17:00N 66°39' E 013°04'611.8
2017-Aug-16 16:29N 66°43' E 013°17'611.5
2017-Aug-16 16:00N 66°48' E 013°21'919.0
2017-Aug-16 15:30N 66°52' E 013°42'714.4
2017-Aug-16 15:01N 66°57' E 013°29'1428.1
2017-Aug-16 14:31N 67°06' E 013°57'1429.0
2017-Aug-16 14:00N 67°17' E 014°22'0 0.2
2017-Aug-16 13:31N 67°17' E 014°22'0 0.0
2017-Aug-16 13:00N 67°17' E 014°22'0 0.0
2017-Aug-16 12:30N 67°17' E 014°22'0 0.0
2017-Aug-16 12:01N 67°17' E 014°22'0 0.0
2017-Aug-16 11:31N 67°17' E 014°22'0 0.0
2017-Aug-16 11:00N 67°17' E 014°22'0 0.0
2017-Aug-16 10:30N 67°17' E 014°22'0 0.0
2017-Aug-16 10:01N 67°17' E 014°22'0 0.0
2017-Aug-16 09:30N 67°17' E 014°22'0 0.0
2017-Aug-16 09:00N 67°17' E 014°22'0 0.3
2017-Aug-16 08:31N 67°17' E 014°23'0 0.3
2017-Aug-16 08:00N 67°17' E 014°22'1223.3
2017-Aug-16 07:30N 67°28' E 014°29'1529.0
2017-Aug-16 07:00N 67°42' E 014°44'917.2
2017-Aug-16 06:30N 67°51' E 014°47'1019.4
2017-Aug-16 06:00N 67°54' E 015°11'714.6
2017-Aug-16 05:30N 68°01' E 015°20'1327.2
2017-Aug-16 05:00N 68°07' E 014°49'917.2
2017-Aug-16 04:30N 68°14' E 014°34'0 0.0
2017-Aug-16 04:00N 68°14' E 014°34'0 0.0
2017-Aug-16 03:30N 68°14' E 014°34'0 0.0
2017-Aug-16 03:00N 68°14' E 014°34'0 0.0
2017-Aug-16 02:30N 68°14' E 014°34'0 0.0
2017-Aug-16 02:00N 68°14' E 014°34'0 0.0
2017-Aug-16 01:30N 68°14' E 014°34'0 0.0
2017-Aug-16 01:00N 68°14' E 014°34'0 0.0
2017-Aug-16 00:30N 68°14' E 014°34'0 0.0
2017-Aug-16 00:00N 68°14' E 014°34'0 0.0
2017-Aug-15 23:30N 68°14' E 014°34'0 0.0
2017-Aug-15 22:59N 68°14' E 014°34'0 0.0
2017-Aug-15 22:30N 68°14' E 014°34'0 0.0
2017-Aug-15 22:00N 68°14' E 014°34'0 0.0
2017-Aug-15 21:30N 68°14' E 014°34'0 0.0
2017-Aug-15 21:00N 68°14' E 014°34'0 0.0
2017-Aug-15 20:30N 68°14' E 014°34'0 0.0
2017-Aug-15 20:00N 68°14' E 014°34'0 0.0
2017-Aug-15 19:30N 68°14' E 014°34'0 0.0
2017-Aug-15 19:00N 68°14' E 014°34'5 9.3
2017-Aug-15 18:30N 68°10' E 014°39'1122.2
2017-Aug-15 18:00N 68°04' E 015°05'916.9
2017-Aug-15 17:30N 67°58' E 015°20'510.0
2017-Aug-15 17:00N 67°54' E 015°10'1122.8
2017-Aug-15 16:30N 67°49' E 014°44'1122.4
2017-Aug-15 16:00N 67°38' E 014°40'1529.8
2017-Aug-15 15:31N 67°24' E 014°26'714.3
2017-Aug-15 15:00N 67°17' E 014°22'0 0.0
2017-Aug-15 14:31N 67°17' E 014°22'0 0.0
2017-Aug-15 14:00N 67°17' E 014°22'0 0.0
2017-Aug-15 13:30N 67°17' E 014°22'0 0.0
2017-Aug-15 13:00N 67°17' E 014°22'0 0.0
2017-Aug-15 12:30N 67°17' E 014°22'0 0.0
2017-Aug-15 12:00N 67°17' E 014°22'0 0.0
2017-Aug-15 11:30N 67°17' E 014°22'0 0.0
2017-Aug-15 11:00N 67°17' E 014°22'0 0.0
2017-Aug-15 10:31N 67°17' E 014°22'0 0.0
2017-Aug-15 10:01N 67°17' E 014°22'1122.3
2017-Aug-15 09:30N 67°09' E 014°01'1020.4
2017-Aug-15 09:00N 67°02' E 013°43'918.1
2017-Aug-15 08:31N 66°54' E 013°31'611.7
2017-Aug-15 08:00N 66°48' E 013°29'816.5
2017-Aug-15 07:30N 66°44' E 013°12'5 9.2
2017-Aug-15 07:00N 66°39' E 013°08'816.9
2017-Aug-15 06:30N 66°32' E 012°58'917.5
2017-Aug-15 05:59N 66°24' E 012°49'1223.8
2017-Aug-15 05:30N 66°13' E 012°59'1122.6
2017-Aug-15 05:00N 66°05' E 012°38'4 4.3
2017-Aug-15 04:05N 66°01' E 012°38'0 0.0
2017-Aug-15 03:46N 66°01' E 012°38'0 0.0
2017-Aug-15 02:44N 66°01' E 012°38'0 0.0
2017-Aug-15 01:17N 66°01' E 012°38'0 0.0
2017-Aug-15 01:00N 66°01' E 012°38'0 0.0
2017-Aug-14 19:41N 66°01' E 012°38'0 0.0
2017-Aug-14 19:26N 66°01' E 012°38'716.8
2017-Aug-14 19:00N 66°08' E 012°48'1020.6
2017-Aug-14 18:30N 66°18' E 012°54'713.8
2017-Aug-14 18:00N 66°24' E 012°50'714.9
2017-Aug-14 17:30N 66°31' E 013°00'917.8
2017-Aug-14 17:00N 66°39' E 013°04'612.0
2017-Aug-14 16:30N 66°43' E 013°17'612.7
2017-Aug-14 16:00N 66°48' E 013°25'815.1
2017-Aug-14 15:30N 66°53' E 013°39'612.3
2017-Aug-14 15:00N 66°59' E 013°36'1225.4
2017-Aug-14 14:30N 67°08' E 013°59'1325.9
2017-Aug-14 14:01N 67°17' E 014°22'0 0.0
2017-Aug-14 13:30N 67°17' E 014°22'0 0.8
2017-Aug-14 13:00N 67°17' E 014°23'0 0.8
2017-Aug-14 12:30N 67°17' E 014°22'0 0.0
2017-Aug-14 12:00N 67°17' E 014°22'0 0.0
2017-Aug-14 11:30N 67°17' E 014°22'0 0.0
2017-Aug-14 11:00N 67°17' E 014°22'0 0.0
2017-Aug-14 10:30N 67°17' E 014°22'0 0.0
2017-Aug-14 10:00N 67°17' E 014°22'918.3
2017-Aug-14 09:30N 67°11' E 014°04'1224.7
2017-Aug-14 09:00N 67°01' E 013°44'917.8
2017-Aug-14 08:30N 66°54' E 013°31'510.5
2017-Aug-14 08:00N 66°49' E 013°31'918.6
2017-Aug-14 07:30N 66°43' E 013°12'611.2
2017-Aug-14 07:00N 66°39' E 013°04'816.2
2017-Aug-14 06:30N 66°31' E 012°59'817.0
2017-Aug-14 06:01N 66°24' E 012°49'1223.6
2017-Aug-14 05:30N 66°12' E 012°60'1122.3
2017-Aug-14 05:00N 66°05' E 012°38'4 7.3
2017-Aug-14 04:28N 66°01' E 012°38'0 0.0
2017-Aug-14 03:31N 66°01' E 012°38'0 0.0
2017-Aug-14 03:13N 66°01' E 012°38'0 0.0
2017-Aug-14 02:59N 66°01' E 012°38'0 0.0
2017-Aug-14 02:30N 66°01' E 012°38'0 0.0
2017-Aug-14 02:00N 66°01' E 012°38'0 0.0
2017-Aug-14 01:30N 66°01' E 012°38'0 0.0
2017-Aug-14 00:59N 66°01' E 012°38'0 0.0
2017-Aug-14 00:30N 66°01' E 012°38'0 0.0
2017-Aug-14 00:00N 66°01' E 012°38'0 0.0
2017-Aug-13 23:30N 66°01' E 012°38'0 0.0
2017-Aug-13 22:59N 66°01' E 012°38'0 0.0
2017-Aug-13 22:30N 66°01' E 012°38'0 0.0
2017-Aug-13 22:00N 66°01' E 012°38'0 0.0
2017-Aug-13 21:30N 66°01' E 012°38'0 0.0
2017-Aug-13 21:00N 66°01' E 012°38'0 0.0
2017-Aug-13 20:29N 66°01' E 012°38'0 0.0
2017-Aug-13 20:00N 66°01' E 012°38'0 0.0
2017-Aug-13 19:30N 66°01' E 012°38'3 6.2
2017-Aug-13 19:00N 66°05' E 012°37'1223.5
2017-Aug-13 18:30N 66°12' E 012°60'1020.2
2017-Aug-13 18:00N 66°06' E 012°40'4 8.6
2017-Aug-13 17:30N 66°01' E 012°38'0 0.0
2017-Aug-13 16:59N 66°01' E 012°38'0 0.0
2017-Aug-13 16:30N 66°01' E 012°38'510.4
2017-Aug-13 16:00N 66°06' E 012°42'918.4
2017-Aug-13 15:30N 66°14' E 012°55'1020.5
2017-Aug-13 15:00N 66°24' E 012°50'816.3
2017-Aug-13 14:30N 66°31' E 013°00'917.6
2017-Aug-13 14:01N 66°39' E 013°04'611.5
2017-Aug-13 13:30N 66°42' E 013°17'713.6
2017-Aug-13 13:00N 66°48' E 013°27'714.2
2017-Aug-13 12:30N 66°54' E 013°37'611.9
2017-Aug-13 12:00N 66°60' E 013°37'1224.1
2017-Aug-13 11:30N 67°08' E 013°58'1325.9
2017-Aug-13 11:01N 67°17' E 014°22'0 0.3
2017-Aug-13 10:30N 67°17' E 014°22'0 0.0
2017-Aug-13 10:01N 67°17' E 014°22'0 0.0
2017-Aug-13 09:30N 67°17' E 014°22'0 0.0
2017-Aug-13 09:01N 67°17' E 014°22'0 0.0
2017-Aug-13 08:31N 67°17' E 014°22'0 0.0
2017-Aug-13 08:01N 67°17' E 014°22'0 0.0
2017-Aug-13 07:31N 67°17' E 014°22'0 0.0
2017-Aug-13 07:01N 67°17' E 014°22'0 0.0
2017-Aug-13 06:30N 67°17' E 014°22'0 0.0
2017-Aug-13 06:00N 67°17' E 014°22'0 0.0
2017-Aug-13 05:31N 67°17' E 014°22'0 0.0
2017-Aug-13 05:00N 67°17' E 014°22'0 0.0
2017-Aug-13 04:31N 67°17' E 014°22'0 0.0
2017-Aug-13 04:01N 67°17' E 014°22'0 0.0
2017-Aug-13 03:31N 67°17' E 014°22'0 0.0
2017-Aug-13 03:01N 67°17' E 014°22'0 0.0
2017-Aug-13 02:31N 67°17' E 014°22'0 0.0
2017-Aug-13 02:01N 67°17' E 014°22'0 0.0
2017-Aug-13 01:31N 67°17' E 014°22'0 0.0
2017-Aug-13 01:01N 67°17' E 014°22'0 0.0
2017-Aug-13 00:31N 67°17' E 014°22'0 0.0
2017-Aug-13 00:01N 67°17' E 014°22'0 0.0
2017-Aug-12 23:31N 67°17' E 014°22'0 0.0
2017-Aug-12 23:01N 67°17' E 014°22'0 0.0
2017-Aug-12 22:30N 67°17' E 014°22'0 0.0
2017-Aug-12 22:00N 67°17' E 014°22'0 0.0
2017-Aug-12 21:31N 67°17' E 014°22'0 0.0
2017-Aug-12 21:00N 67°17' E 014°22'0 0.0
2017-Aug-12 20:30N 67°17' E 014°22'0 0.0
2017-Aug-12 20:01N 67°17' E 014°22'0 0.0
2017-Aug-12 19:31N 67°17' E 014°22'0 0.0
2017-Aug-12 19:01N 67°17' E 014°22'0 0.0
2017-Aug-12 18:31N 67°17' E 014°22'0 0.0
2017-Aug-12 18:01N 67°17' E 014°22'0 0.0
2017-Aug-12 17:31N 67°17' E 014°22'0 0.0
2017-Aug-12 17:01N 67°17' E 014°22'0 0.0
2017-Aug-12 16:31N 67°17' E 014°22'0 0.0
2017-Aug-12 16:01N 67°17' E 014°22'0 0.0
2017-Aug-12 15:31N 67°17' E 014°22'0 0.0
2017-Aug-12 15:01N 67°17' E 014°22'0 0.0
2017-Aug-12 14:31N 67°17' E 014°22'0 0.0
2017-Aug-12 14:01N 67°17' E 014°22'0 0.0
2017-Aug-12 13:30N 67°17' E 014°22'0 0.0
2017-Aug-12 13:01N 67°17' E 014°22'0 0.0
2017-Aug-12 12:30N 67°17' E 014°22'0 0.0
2017-Aug-12 12:01N 67°17' E 014°22'0 0.0
2017-Aug-12 11:31N 67°17' E 014°22'0 0.0
2017-Aug-12 11:01N 67°17' E 014°22'0 0.0
2017-Aug-12 10:31N 67°17' E 014°22'0 0.0
2017-Aug-12 10:01N 67°17' E 014°22'0 0.0
2017-Aug-12 09:30N 67°17' E 014°22'0 0.0
2017-Aug-12 09:00N 67°17' E 014°22'0 0.0
2017-Aug-12 08:30N 67°17' E 014°22'0 0.0
2017-Aug-12 08:01N 67°17' E 014°22'1222.6
2017-Aug-12 07:30N 67°28' E 014°33'1325.5
2017-Aug-12 07:00N 67°40' E 014°42'917.9
2017-Aug-12 06:30N 67°49' E 014°44'1021.0
2017-Aug-12 06:00N 67°54' E 015°07'815.8
2017-Aug-12 05:30N 68°01' E 015°20'1326.2
2017-Aug-12 05:00N 68°07' E 014°50'917.9
2017-Aug-12 04:30N 68°14' E 014°34'0 0.0
2017-Aug-12 04:00N 68°14' E 014°34'0 0.0
2017-Aug-12 03:29N 68°14' E 014°34'0 0.0
2017-Aug-12 03:00N 68°14' E 014°34'0 0.0
2017-Aug-12 02:29N 68°14' E 014°34'0 0.0
2017-Aug-12 02:00N 68°14' E 014°34'0 0.0
2017-Aug-12 01:30N 68°14' E 014°34'0 0.0
2017-Aug-12 01:00N 68°14' E 014°34'0 0.0
2017-Aug-12 00:30N 68°14' E 014°34'0 0.0
2017-Aug-12 00:00N 68°14' E 014°34'0 0.0
2017-Aug-11 23:29N 68°14' E 014°34'0 0.0
2017-Aug-11 23:00N 68°14' E 014°34'0 0.0
2017-Aug-11 22:30N 68°14' E 014°34'0 0.0
2017-Aug-11 22:00N 68°14' E 014°34'0 0.0
2017-Aug-11 21:30N 68°14' E 014°34'0 0.0
2017-Aug-11 21:00N 68°14' E 014°34'0 0.0
2017-Aug-11 20:30N 68°14' E 014°34'0 0.0
2017-Aug-11 20:00N 68°14' E 014°34'1 2.8
2017-Aug-11 19:30N 68°13' E 014°35'715.1
2017-Aug-11 19:00N 68°08' E 014°51'1326.9
2017-Aug-11 18:31N 68°01' E 015°21'714.5
2017-Aug-11 18:00N 67°54' E 015°11'918.0
2017-Aug-11 17:30N 67°52' E 014°49'916.9
2017-Aug-11 17:00N 67°44' E 014°45'1428.2
2017-Aug-11 16:30N 67°30' E 014°36'1428.4
2017-Aug-11 16:01N 67°17' E 014°22'0 0.2
2017-Aug-11 15:31N 67°17' E 014°22'1528.5
2017-Aug-11 15:00N 67°30' E 014°38'1428.2
2017-Aug-11 14:30N 67°44' E 014°46'2222.1
2017-Aug-11 13:30N 67°23' E 014°26'713.0
2017-Aug-11 13:00N 67°17' E 014°22'0 0.8
2017-Aug-11 12:30N 67°17' E 014°23'0 0.8
2017-Aug-11 12:00N 67°17' E 014°22'0 0.0
2017-Aug-11 11:30N 67°17' E 014°22'0 0.0
2017-Aug-11 11:00N 67°17' E 014°22'0 0.0
2017-Aug-11 10:30N 67°17' E 014°22'0 0.0
2017-Aug-11 10:00N 67°17' E 014°22'0 0.0
2017-Aug-11 09:30N 67°17' E 014°22'0 0.0
2017-Aug-11 09:00N 67°17' E 014°22'0 0.0
2017-Aug-11 08:30N 67°17' E 014°22'0 0.0
2017-Aug-11 08:01N 67°17' E 014°22'1325.8
2017-Aug-11 07:31N 67°29' E 014°36'1427.5
2017-Aug-11 07:00N 67°42' E 014°43'815.9
2017-Aug-11 06:31N 67°50' E 014°47'1019.1
2017-Aug-11 06:00N 67°54' E 015°11'816.0
2017-Aug-11 05:30N 68°01' E 015°17'1426.9
2017-Aug-11 05:00N 68°08' E 014°45'714.1
2017-Aug-11 04:30N 68°14' E 014°34'0 0.0
2017-Aug-11 04:00N 68°14' E 014°34'0 0.0
2017-Aug-11 03:30N 68°14' E 014°34'0 0.0
2017-Aug-11 03:00N 68°14' E 014°34'0 0.0
2017-Aug-11 02:30N 68°14' E 014°34'0 0.0
2017-Aug-11 02:00N 68°14' E 014°34'0 0.0
2017-Aug-11 01:30N 68°14' E 014°34'0 0.0
2017-Aug-11 01:00N 68°14' E 014°34'0 0.0
2017-Aug-11 00:30N 68°14' E 014°34'0 0.0
2017-Aug-11 00:00N 68°14' E 014°34'0 0.0
2017-Aug-10 23:30N 68°14' E 014°34'0 0.0
2017-Aug-10 23:00N 68°14' E 014°34'0 0.0
2017-Aug-10 22:30N 68°14' E 014°34'0 0.0
2017-Aug-10 22:00N 68°14' E 014°34'0 0.0
2017-Aug-10 21:30N 68°14' E 014°34'0 0.0
2017-Aug-10 20:59N 68°14' E 014°34'0 0.0
2017-Aug-10 20:30N 68°14' E 014°34'0 0.0
2017-Aug-10 20:00N 68°14' E 014°34'0 0.0
2017-Aug-10 19:30N 68°14' E 014°34'0 0.0
2017-Aug-10 19:00N 68°14' E 014°34'4 9.0
2017-Aug-10 18:31N 68°10' E 014°40'1222.8
2017-Aug-10 18:00N 68°04' E 015°06'815.8
2017-Aug-10 17:30N 67°58' E 015°20'918.6
2017-Aug-10 17:00N 67°54' E 014°58'816.2
2017-Aug-10 16:30N 67°48' E 014°44'1223.0
2017-Aug-10 16:00N 67°36' E 014°38'1530.2
2017-Aug-10 15:31N 67°23' E 014°25'611.3
2017-Aug-10 15:01N 67°17' E 014°22'0 0.0
2017-Aug-10 14:31N 67°17' E 014°22'0 0.0
2017-Aug-10 14:01N 67°17' E 014°22'0 0.0
2017-Aug-10 13:30N 67°17' E 014°22'0 0.0
2017-Aug-10 13:00N 67°17' E 014°22'0 0.0
2017-Aug-10 12:31N 67°17' E 014°22'0 0.0
2017-Aug-10 12:01N 67°17' E 014°22'0 0.0
2017-Aug-10 11:31N 67°17' E 014°22'0 0.0
2017-Aug-10 11:00N 67°17' E 014°22'0 0.0
2017-Aug-10 10:30N 67°17' E 014°22'0 0.0
2017-Aug-10 10:01N 67°17' E 014°22'0 0.0
2017-Aug-10 09:30N 67°17' E 014°22'0 0.0
2017-Aug-10 09:01N 67°17' E 014°22'0 0.8
2017-Aug-10 08:30N 67°17' E 014°23'0 0.6
2017-Aug-10 08:01N 67°18' E 014°22'1630.9
2017-Aug-10 07:30N 67°33' E 014°33'1224.9
2017-Aug-10 07:00N 67°44' E 014°46'714.2
2017-Aug-10 06:30N 67°51' E 014°48'918.8
2017-Aug-10 06:00N 67°54' E 015°11'815.3
2017-Aug-10 05:30N 68°02' E 015°17'1428.8
2017-Aug-10 05:00N 68°08' E 014°43'613.1
2017-Aug-10 04:30N 68°14' E 014°34'0 0.1
2017-Aug-10 04:00N 68°14' E 014°34'0 0.0
2017-Aug-10 03:30N 68°14' E 014°34'0 0.0
2017-Aug-10 03:00N 68°14' E 014°34'0 0.0
2017-Aug-10 02:29N 68°14' E 014°34'0 0.0
2017-Aug-10 02:00N 68°14' E 014°34'0 0.0
2017-Aug-10 01:30N 68°14' E 014°34'0 0.0
2017-Aug-10 01:00N 68°14' E 014°34'0 0.0
2017-Aug-10 00:30N 68°14' E 014°34'0 0.0
2017-Aug-10 00:00N 68°14' E 014°34'0 0.0
2017-Aug-09 23:30N 68°14' E 014°34'0 0.0
2017-Aug-09 23:00N 68°14' E 014°34'0 0.0
2017-Aug-09 22:30N 68°14' E 014°34'0 0.0
2017-Aug-09 22:00N 68°14' E 014°34'0 0.0
2017-Aug-09 21:30N 68°14' E 014°34'0 0.0
2017-Aug-09 21:00N 68°14' E 014°34'0 0.0
2017-Aug-09 20:30N 68°14' E 014°34'0 0.0
2017-Aug-09 19:59N 68°14' E 014°34'0 0.1
2017-Aug-09 19:30N 68°14' E 014°34'0 0.1
2017-Aug-09 19:00N 68°14' E 014°34'4 8.8
2017-Aug-09 18:30N 68°10' E 014°40'1122.2
2017-Aug-09 18:00N 68°04' E 015°06'817.1
2017-Aug-09 17:30N 67°58' E 015°20'918.1
2017-Aug-09 17:00N 67°54' E 014°58'1019.4
2017-Aug-09 16:30N 67°46' E 014°43'918.7
2017-Aug-09 16:00N 67°37' E 014°39'1529.4
2017-Aug-09 15:30N 67°23' E 014°26'612.9
2017-Aug-09 15:00N 67°17' E 014°22'0 0.0
2017-Aug-09 14:30N 67°17' E 014°22'0 0.0
2017-Aug-09 14:00N 67°17' E 014°22'0 0.0
2017-Aug-09 13:30N 67°17' E 014°22'0 0.0
2017-Aug-09 13:00N 67°17' E 014°22'0 0.0
2017-Aug-09 12:30N 67°17' E 014°22'0 0.0
2017-Aug-09 12:00N 67°17' E 014°22'0 0.0
2017-Aug-09 11:30N 67°17' E 014°22'0 0.0
2017-Aug-09 11:00N 67°17' E 014°22'0 0.0
2017-Aug-09 10:30N 67°17' E 014°22'0 0.0
2017-Aug-09 10:00N 67°17' E 014°22'1224.0
2017-Aug-09 09:30N 67°08' E 013°60'1224.8
2017-Aug-09 09:01N 66°60' E 013°38'612.5
2017-Aug-09 08:30N 66°53' E 013°39'714.3
2017-Aug-09 08:00N 66°48' E 013°27'713.3
2017-Aug-09 07:30N 66°43' E 013°17'611.9
2017-Aug-09 07:00N 66°39' E 013°04'917.7
2017-Aug-09 06:30N 66°31' E 013°00'816.9
2017-Aug-09 06:01N 66°24' E 012°49'1224.2
2017-Aug-09 05:30N 66°12' E 013°00'1224.7
2017-Aug-09 05:00N 66°05' E 012°35'4 7.7
2017-Aug-09 04:30N 66°01' E 012°38'0 0.0
2017-Aug-09 04:00N 66°01' E 012°38'0 0.0
2017-Aug-09 03:30N 66°01' E 012°38'0 0.0
2017-Aug-09 03:00N 66°01' E 012°38'0 0.0
2017-Aug-09 02:29N 66°01' E 012°38'0 0.0
2017-Aug-09 02:00N 66°01' E 012°38'0 0.0
2017-Aug-09 01:30N 66°01' E 012°38'0 0.0
2017-Aug-09 01:00N 66°01' E 012°38'0 0.0
2017-Aug-09 00:30N 66°01' E 012°38'0 0.0
2017-Aug-09 00:00N 66°01' E 012°38'0 0.0
2017-Aug-08 23:30N 66°01' E 012°38'0 0.0
2017-Aug-08 23:00N 66°01' E 012°38'0 0.0
2017-Aug-08 22:30N 66°01' E 012°38'0 0.0
2017-Aug-08 22:00N 66°01' E 012°38'0 0.0
2017-Aug-08 21:30N 66°01' E 012°38'0 0.0
2017-Aug-08 21:00N 66°01' E 012°38'0 0.0
2017-Aug-08 20:30N 66°01' E 012°38'0 0.0
2017-Aug-08 20:00N 66°01' E 012°38'4 7.5
2017-Aug-08 19:30N 66°05' E 012°35'1224.9
2017-Aug-08 19:00N 66°12' E 013°00'1019.7
2017-Aug-08 18:30N 66°21' E 012°52'712.8
2017-Aug-08 18:00N 66°28' E 012°53'714.4
2017-Aug-08 17:30N 66°34' E 012°59'611.7
2017-Aug-08 17:00N 66°39' E 013°07'611.2
2017-Aug-08 16:30N 66°44' E 013°13'916.7
2017-Aug-08 16:00N 66°49' E 013°31'613.0
2017-Aug-08 15:31N 66°55' E 013°30'917.7
2017-Aug-08 15:01N 67°02' E 013°45'918.0
2017-Aug-08 14:30N 67°07' E 014°03'1224.6
2017-Aug-08 14:01N 67°17' E 014°22'  
Track history (hours):
 
Tides and Currents Weather Stations Pressure Air Temp Water Temp Dewpoint Dewpoint Depression Visibility Wind Speed Wind Dir Waves Ship Positions

Salten

Last reported at 2017-Aug-18 13:31 UTC. Time now 2017-Aug-18 14:29 UTC.
Position N 67°22' E 014°28'.

Length 41 m; draft 2 m.

Type: High speed craft. MMSI: 259387000.

Date/timePositionNaut miles runAvg speedWind from/ knotsBaromVisibWave heightAir tempDewpointWater temp
2017-Aug-18 13:31N 67°22' E 014°28'510.4
2017-Aug-18 13:00N 67°17' E 014°23'0 0.1
2017-Aug-18 12:30N 67°17' E 014°23'0 0.5
2017-Aug-18 12:00N 67°17' E 014°22'0 0.0
2017-Aug-18 11:30N 67°17' E 014°22'0 0.0
2017-Aug-18 11:00N 67°17' E 014°22'0 0.0
2017-Aug-18 10:30N 67°17' E 014°22'0 0.0
2017-Aug-18 10:00N 67°17' E 014°22'0 0.0
2017-Aug-18 09:30N 67°17' E 014°22'0 0.0
2017-Aug-18 09:00N 67°17' E 014°22'0 0.0
2017-Aug-18 08:30N 67°17' E 014°22'0 0.5
2017-Aug-18 08:01N 67°17' E 014°22'1529.2
2017-Aug-18 07:30N 67°30' E 014°39'1428.2
2017-Aug-18 07:00N 67°44' E 014°46'612.8
2017-Aug-18 06:30N 67°50' E 014°47'1019.2
2017-Aug-18 06:00N 67°54' E 015°11'714.6
2017-Aug-18 05:30N 68°01' E 015°20'1428.6
2017-Aug-18 05:00N 68°08' E 014°47'815.5
2017-Aug-18 04:30N 68°14' E 014°34'0 0.0
2017-Aug-18 04:00N 68°14' E 014°34'0 0.0
2017-Aug-18 03:30N 68°14' E 014°34'0 0.0
2017-Aug-18 03:00N 68°14' E 014°34'0 0.0
2017-Aug-18 02:30N 68°14' E 014°34'0 0.0
2017-Aug-18 02:00N 68°14' E 014°34'0 0.0
2017-Aug-18 01:30N 68°14' E 014°34'0 0.0
2017-Aug-18 01:00N 68°14' E 014°34'0 0.0
2017-Aug-18 00:30N 68°14' E 014°34'0 0.0
2017-Aug-18 00:00N 68°14' E 014°34'0 0.0
2017-Aug-17 23:30N 68°14' E 014°34'0 0.0
2017-Aug-17 23:00N 68°14' E 014°34'0 0.0
2017-Aug-17 22:30N 68°14' E 014°34'0 0.0
2017-Aug-17 22:00N 68°14' E 014°34'0 0.0
2017-Aug-17 21:30N 68°14' E 014°34'0 0.0
2017-Aug-17 20:59N 68°14' E 014°34'0 0.0
2017-Aug-17 20:30N 68°14' E 014°34'0 0.0
2017-Aug-17 20:00N 68°14' E 014°34'3 2.6
2017-Aug-17 18:41N 68°11' E 014°38'1 6.2
2017-Aug-17 18:30N 68°10' E 014°40'1223.7
2017-Aug-17 18:00N 68°04' E 015°07'918.1
2017-Aug-17 17:30N 67°56' E 015°20'1019.4
2017-Aug-17 17:00N 67°54' E 014°55'918.7
2017-Aug-17 16:30N 67°45' E 014°46'1020.7
2017-Aug-17 16:00N 67°35' E 014°43'1428.7
2017-Aug-17 15:31N 67°22' E 014°29'611.1
2017-Aug-17 15:00N 67°17' E 014°22'0 0.0
2017-Aug-17 14:30N 67°17' E 014°22'0 0.0
2017-Aug-17 14:00N 67°17' E 014°22'0 0.0
2017-Aug-17 13:30N 67°17' E 014°22'0 0.0
2017-Aug-17 13:00N 67°17' E 014°22'0 0.0
2017-Aug-17 12:30N 67°17' E 014°22'0 0.0
2017-Aug-17 12:00N 67°17' E 014°22'0 0.0
2017-Aug-17 11:30N 67°17' E 014°22'0 0.0
2017-Aug-17 11:00N 67°17' E 014°22'0 0.0
2017-Aug-17 10:30N 67°17' E 014°22'0 0.2
2017-Aug-17 10:00N 67°17' E 014°22'1019.1
2017-Aug-17 09:31N 67°11' E 014°05'1325.6
2017-Aug-17 09:00N 67°01' E 013°42'816.2
2017-Aug-17 08:30N 66°54' E 013°32'611.5
2017-Aug-17 08:00N 66°48' E 013°29'816.2
2017-Aug-17 07:30N 66°43' E 013°12'4 8.8
2017-Aug-17 07:00N 66°39' E 013°08'816.4
2017-Aug-17 06:30N 66°32' E 012°58'918.3
2017-Aug-17 06:00N 66°24' E 012°50'1224.2
2017-Aug-17 05:30N 66°12' E 012°60'1122.5
2017-Aug-17 05:00N 66°05' E 012°38'4 0.4
2017-Aug-16 19:53N 66°01' E 012°38'2 4.1
2017-Aug-16 19:30N 66°03' E 012°38'1020.7
2017-Aug-16 19:00N 66°10' E 012°57'1121.2
2017-Aug-16 18:30N 66°20' E 012°60'611.1
2017-Aug-16 18:00N 66°24' E 012°50'714.7
2017-Aug-16 17:30N 66°31' E 013°00'917.7
2017-Aug-16 17:00N 66°39' E 013°04'611.8
2017-Aug-16 16:29N 66°43' E 013°17'611.5
2017-Aug-16 16:00N 66°48' E 013°21'919.0
2017-Aug-16 15:30N 66°52' E 013°42'714.4
2017-Aug-16 15:01N 66°57' E 013°29'1428.1
2017-Aug-16 14:31N 67°06' E 013°57'1429.0
2017-Aug-16 14:00N 67°17' E 014°22'0 0.2
2017-Aug-16 13:31N 67°17' E 014°22'0 0.0
2017-Aug-16 13:00N 67°17' E 014°22'0 0.0
2017-Aug-16 12:30N 67°17' E 014°22'0 0.0
2017-Aug-16 12:01N 67°17' E 014°22'0 0.0
2017-Aug-16 11:31N 67°17' E 014°22'0 0.0
2017-Aug-16 11:00N 67°17' E 014°22'0 0.0
2017-Aug-16 10:30N 67°17' E 014°22'0 0.0
2017-Aug-16 10:01N 67°17' E 014°22'0 0.0
2017-Aug-16 09:30N 67°17' E 014°22'0 0.0
2017-Aug-16 09:00N 67°17' E 014°22'0 0.3
2017-Aug-16 08:31N 67°17' E 014°23'0 0.3
2017-Aug-16 08:00N 67°17' E 014°22'1223.3
2017-Aug-16 07:30N 67°28' E 014°29'1529.0
2017-Aug-16 07:00N 67°42' E 014°44'917.2
2017-Aug-16 06:30N 67°51' E 014°47'1019.4
2017-Aug-16 06:00N 67°54' E 015°11'714.6
2017-Aug-16 05:30N 68°01' E 015°20'1327.2
2017-Aug-16 05:00N 68°07' E 014°49'917.2
2017-Aug-16 04:30N 68°14' E 014°34'0 0.0
2017-Aug-16 04:00N 68°14' E 014°34'0 0.0
2017-Aug-16 03:30N 68°14' E 014°34'0 0.0
2017-Aug-16 03:00N 68°14' E 014°34'0 0.0
2017-Aug-16 02:30N 68°14' E 014°34'0 0.0
2017-Aug-16 02:00N 68°14' E 014°34'0 0.0
2017-Aug-16 01:30N 68°14' E 014°34'0 0.0
2017-Aug-16 01:00N 68°14' E 014°34'0 0.0
2017-Aug-16 00:30N 68°14' E 014°34'0 0.0
2017-Aug-16 00:00N 68°14' E 014°34'0 0.0
2017-Aug-15 23:30N 68°14' E 014°34'0 0.0
2017-Aug-15 22:59N 68°14' E 014°34'0 0.0
2017-Aug-15 22:30N 68°14' E 014°34'0 0.0
2017-Aug-15 22:00N 68°14' E 014°34'0 0.0
2017-Aug-15 21:30N 68°14' E 014°34'0 0.0
2017-Aug-15 21:00N 68°14' E 014°34'0 0.0
2017-Aug-15 20:30N 68°14' E 014°34'0 0.0
2017-Aug-15 20:00N 68°14' E 014°34'0 0.0
2017-Aug-15 19:30N 68°14' E 014°34'0 0.0
2017-Aug-15 19:00N 68°14' E 014°34'5 9.3
2017-Aug-15 18:30N 68°10' E 014°39'1122.2
2017-Aug-15 18:00N 68°04' E 015°05'916.9
2017-Aug-15 17:30N 67°58' E 015°20'510.0
2017-Aug-15 17:00N 67°54' E 015°10'1122.8
2017-Aug-15 16:30N 67°49' E 014°44'1122.4
2017-Aug-15 16:00N 67°38' E 014°40'1529.8
2017-Aug-15 15:31N 67°24' E 014°26'714.3
2017-Aug-15 15:00N 67°17' E 014°22'0 0.0
2017-Aug-15 14:31N 67°17' E 014°22'0 0.0
2017-Aug-15 14:00N 67°17' E 014°22'0 0.0
2017-Aug-15 13:30N 67°17' E 014°22'0 0.0
2017-Aug-15 13:00N 67°17' E 014°22'0 0.0
2017-Aug-15 12:30N 67°17' E 014°22'0 0.0
2017-Aug-15 12:00N 67°17' E 014°22'0 0.0
2017-Aug-15 11:30N 67°17' E 014°22'0 0.0
2017-Aug-15 11:00N 67°17' E 014°22'0 0.0
2017-Aug-15 10:31N 67°17' E 014°22'0 0.0
2017-Aug-15 10:01N 67°17' E 014°22'1122.3
2017-Aug-15 09:30N 67°09' E 014°01'1020.4
2017-Aug-15 09:00N 67°02' E 013°43'918.1
2017-Aug-15 08:31N 66°54' E 013°31'611.7
2017-Aug-15 08:00N 66°48' E 013°29'816.5
2017-Aug-15 07:30N 66°44' E 013°12'5 9.2
2017-Aug-15 07:00N 66°39' E 013°08'816.9
2017-Aug-15 06:30N 66°32' E 012°58'917.5
2017-Aug-15 05:59N 66°24' E 012°49'1223.8
2017-Aug-15 05:30N 66°13' E 012°59'1122.6
2017-Aug-15 05:00N 66°05' E 012°38'4 4.3
2017-Aug-15 04:05N 66°01' E 012°38'0 0.0
2017-Aug-15 03:46N 66°01' E 012°38'0 0.0
2017-Aug-15 02:44N 66°01' E 012°38'0 0.0
2017-Aug-15 01:17N 66°01' E 012°38'0 0.0
2017-Aug-15 01:00N 66°01' E 012°38'0 0.0
2017-Aug-14 19:41N 66°01' E 012°38'0 0.0
2017-Aug-14 19:26N 66°01' E 012°38'716.8
2017-Aug-14 19:00N 66°08' E 012°48'1020.6
2017-Aug-14 18:30N 66°18' E 012°54'713.8
2017-Aug-14 18:00N 66°24' E 012°50'714.9
2017-Aug-14 17:30N 66°31' E 013°00'917.8
2017-Aug-14 17:00N 66°39' E 013°04'612.0
2017-Aug-14 16:30N 66°43' E 013°17'612.7
2017-Aug-14 16:00N 66°48' E 013°25'815.1
2017-Aug-14 15:30N 66°53' E 013°39'612.3
2017-Aug-14 15:00N 66°59' E 013°36'1225.4
2017-Aug-14 14:30N 67°08' E 013°59'1325.9
2017-Aug-14 14:01N 67°17' E 014°22'0 0.0
2017-Aug-14 13:30N 67°17' E 014°22'0 0.8
2017-Aug-14 13:00N 67°17' E 014°23'0 0.8
2017-Aug-14 12:30N 67°17' E 014°22'0 0.0
2017-Aug-14 12:00N 67°17' E 014°22'0 0.0
2017-Aug-14 11:30N 67°17' E 014°22'0 0.0
2017-Aug-14 11:00N 67°17' E 014°22'0 0.0
2017-Aug-14 10:30N 67°17' E 014°22'0 0.0
2017-Aug-14 10:00N 67°17' E 014°22'918.3
2017-Aug-14 09:30N 67°11' E 014°04'1224.7
2017-Aug-14 09:00N 67°01' E 013°44'917.8
2017-Aug-14 08:30N 66°54' E 013°31'510.5
2017-Aug-14 08:00N 66°49' E 013°31'918.6
2017-Aug-14 07:30N 66°43' E 013°12'611.2
2017-Aug-14 07:00N 66°39' E 013°04'816.2
2017-Aug-14 06:30N 66°31' E 012°59'817.0
2017-Aug-14 06:01N 66°24' E 012°49'1223.6
2017-Aug-14 05:30N 66°12' E 012°60'1122.3
2017-Aug-14 05:00N 66°05' E 012°38'4 7.3
2017-Aug-14 04:28N 66°01' E 012°38'0 0.0
2017-Aug-14 03:31N 66°01' E 012°38'0 0.0
2017-Aug-14 03:13N 66°01' E 012°38'0 0.0
2017-Aug-14 02:59N 66°01' E 012°38'0 0.0
2017-Aug-14 02:30N 66°01' E 012°38'0 0.0
2017-Aug-14 02:00N 66°01' E 012°38'0 0.0
2017-Aug-14 01:30N 66°01' E 012°38'0 0.0
2017-Aug-14 00:59N 66°01' E 012°38'0 0.0
2017-Aug-14 00:30N 66°01' E 012°38'0 0.0
2017-Aug-14 00:00N 66°01' E 012°38'0 0.0
2017-Aug-13 23:30N 66°01' E 012°38'0 0.0
2017-Aug-13 22:59N 66°01' E 012°38'0 0.0
2017-Aug-13 22:30N 66°01' E 012°38'0 0.0
2017-Aug-13 22:00N 66°01' E 012°38'0 0.0
2017-Aug-13 21:30N 66°01' E 012°38'0 0.0
2017-Aug-13 21:00N 66°01' E 012°38'0 0.0
2017-Aug-13 20:29N 66°01' E 012°38'0 0.0
2017-Aug-13 20:00N 66°01' E 012°38'0 0.0
2017-Aug-13 19:30N 66°01' E 012°38'3 6.2
2017-Aug-13 19:00N 66°05' E 012°37'1223.5
2017-Aug-13 18:30N 66°12' E 012°60'1020.2
2017-Aug-13 18:00N 66°06' E 012°40'4 8.6
2017-Aug-13 17:30N 66°01' E 012°38'0 0.0
2017-Aug-13 16:59N 66°01' E 012°38'0 0.0
2017-Aug-13 16:30N 66°01' E 012°38'510.4
2017-Aug-13 16:00N 66°06' E 012°42'918.4
2017-Aug-13 15:30N 66°14' E 012°55'1020.5
2017-Aug-13 15:00N 66°24' E 012°50'816.3
2017-Aug-13 14:30N 66°31' E 013°00'917.6
2017-Aug-13 14:01N 66°39' E 013°04'611.5
2017-Aug-13 13:30N 66°42' E 013°17'713.6
2017-Aug-13 13:00N 66°48' E 013°27'714.2
2017-Aug-13 12:30N 66°54' E 013°37'611.9
2017-Aug-13 12:00N 66°60' E 013°37'1224.1
2017-Aug-13 11:30N 67°08' E 013°58'1325.9
2017-Aug-13 11:01N 67°17' E 014°22'0 0.3
2017-Aug-13 10:30N 67°17' E 014°22'0 0.0
2017-Aug-13 10:01N 67°17' E 014°22'0 0.0
2017-Aug-13 09:30N 67°17' E 014°22'0 0.0
2017-Aug-13 09:01N 67°17' E 014°22'0 0.0
2017-Aug-13 08:31N 67°17' E 014°22'0 0.0
2017-Aug-13 08:01N 67°17' E 014°22'0 0.0
2017-Aug-13 07:31N 67°17' E 014°22'0 0.0
2017-Aug-13 07:01N 67°17' E 014°22'0 0.0
2017-Aug-13 06:30N 67°17' E 014°22'0 0.0
2017-Aug-13 06:00N 67°17' E 014°22'0 0.0
2017-Aug-13 05:31N 67°17' E 014°22'0 0.0
2017-Aug-13 05:00N 67°17' E 014°22'0 0.0
2017-Aug-13 04:31N 67°17' E 014°22'0 0.0
2017-Aug-13 04:01N 67°17' E 014°22'0 0.0
2017-Aug-13 03:31N 67°17' E 014°22'0 0.0
2017-Aug-13 03:01N 67°17' E 014°22'0 0.0
2017-Aug-13 02:31N 67°17' E 014°22'0 0.0
2017-Aug-13 02:01N 67°17' E 014°22'0 0.0
2017-Aug-13 01:31N 67°17' E 014°22'0 0.0
2017-Aug-13 01:01N 67°17' E 014°22'0 0.0
2017-Aug-13 00:31N 67°17' E 014°22'0 0.0
2017-Aug-13 00:01N 67°17' E 014°22'0 0.0
2017-Aug-12 23:31N 67°17' E 014°22'0 0.0
2017-Aug-12 23:01N 67°17' E 014°22'0 0.0
2017-Aug-12 22:30N 67°17' E 014°22'0 0.0
2017-Aug-12 22:00N 67°17' E 014°22'0 0.0
2017-Aug-12 21:31N 67°17' E 014°22'0 0.0
2017-Aug-12 21:00N 67°17' E 014°22'0 0.0
2017-Aug-12 20:30N 67°17' E 014°22'0 0.0
2017-Aug-12 20:01N 67°17' E 014°22'0 0.0
2017-Aug-12 19:31N 67°17' E 014°22'0 0.0
2017-Aug-12 19:01N 67°17' E 014°22'0 0.0
2017-Aug-12 18:31N 67°17' E 014°22'0 0.0
2017-Aug-12 18:01N 67°17' E 014°22'0 0.0
2017-Aug-12 17:31N 67°17' E 014°22'0 0.0
2017-Aug-12 17:01N 67°17' E 014°22'0 0.0
2017-Aug-12 16:31N 67°17' E 014°22'0 0.0
2017-Aug-12 16:01N 67°17' E 014°22'0 0.0
2017-Aug-12 15:31N 67°17' E 014°22'0 0.0
2017-Aug-12 15:01N 67°17' E 014°22'0 0.0
2017-Aug-12 14:31N 67°17' E 014°22'0 0.0
2017-Aug-12 14:01N 67°17' E 014°22'0 0.0
2017-Aug-12 13:30N 67°17' E 014°22'0 0.0
2017-Aug-12 13:01N 67°17' E 014°22'0 0.0
2017-Aug-12 12:30N 67°17' E 014°22'0 0.0
2017-Aug-12 12:01N 67°17' E 014°22'0 0.0
2017-Aug-12 11:31N 67°17' E 014°22'0 0.0
2017-Aug-12 11:01N 67°17' E 014°22'0 0.0
2017-Aug-12 10:31N 67°17' E 014°22'0 0.0
2017-Aug-12 10:01N 67°17' E 014°22'0 0.0
2017-Aug-12 09:30N 67°17' E 014°22'0 0.0
2017-Aug-12 09:00N 67°17' E 014°22'0 0.0
2017-Aug-12 08:30N 67°17' E 014°22'0 0.0
2017-Aug-12 08:01N 67°17' E 014°22'1222.6
2017-Aug-12 07:30N 67°28' E 014°33'1325.5
2017-Aug-12 07:00N 67°40' E 014°42'917.9
2017-Aug-12 06:30N 67°49' E 014°44'1021.0
2017-Aug-12 06:00N 67°54' E 015°07'815.8
2017-Aug-12 05:30N 68°01' E 015°20'1326.2
2017-Aug-12 05:00N 68°07' E 014°50'917.9
2017-Aug-12 04:30N 68°14' E 014°34'0 0.0
2017-Aug-12 04:00N 68°14' E 014°34'0 0.0
2017-Aug-12 03:29N 68°14' E 014°34'0 0.0
2017-Aug-12 03:00N 68°14' E 014°34'0 0.0
2017-Aug-12 02:29N 68°14' E 014°34'0 0.0
2017-Aug-12 02:00N 68°14' E 014°34'0 0.0
2017-Aug-12 01:30N 68°14' E 014°34'0 0.0
2017-Aug-12 01:00N 68°14' E 014°34'0 0.0
2017-Aug-12 00:30N 68°14' E 014°34'0 0.0
2017-Aug-12 00:00N 68°14' E 014°34'0 0.0
2017-Aug-11 23:29N 68°14' E 014°34'0 0.0
2017-Aug-11 23:00N 68°14' E 014°34'0 0.0
2017-Aug-11 22:30N 68°14' E 014°34'0 0.0
2017-Aug-11 22:00N 68°14' E 014°34'0 0.0
2017-Aug-11 21:30N 68°14' E 014°34'0 0.0
2017-Aug-11 21:00N 68°14' E 014°34'0 0.0
2017-Aug-11 20:30N 68°14' E 014°34'0 0.0
2017-Aug-11 20:00N 68°14' E 014°34'1 2.8
2017-Aug-11 19:30N 68°13' E 014°35'715.1
2017-Aug-11 19:00N 68°08' E 014°51'1326.9
2017-Aug-11 18:31N 68°01' E 015°21'714.5
2017-Aug-11 18:00N 67°54' E 015°11'918.0
2017-Aug-11 17:30N 67°52' E 014°49'916.9
2017-Aug-11 17:00N 67°44' E 014°45'1428.2
2017-Aug-11 16:30N 67°30' E 014°36'1428.4
2017-Aug-11 16:01N 67°17' E 014°22'0 0.2
2017-Aug-11 15:31N 67°17' E 014°22'1528.5
2017-Aug-11 15:00N 67°30' E 014°38'1428.2
2017-Aug-11 14:30N 67°44' E 014°46'2222.1
2017-Aug-11 13:30N 67°23' E 014°26'713.0
2017-Aug-11 13:00N 67°17' E 014°22'0 0.8
2017-Aug-11 12:30N 67°17' E 014°23'0 0.8
2017-Aug-11 12:00N 67°17' E 014°22'0 0.0
2017-Aug-11 11:30N 67°17' E 014°22'0 0.0
2017-Aug-11 11:00N 67°17' E 014°22'0 0.0
2017-Aug-11 10:30N 67°17' E 014°22'0 0.0
2017-Aug-11 10:00N 67°17' E 014°22'0 0.0
2017-Aug-11 09:30N 67°17' E 014°22'0 0.0
2017-Aug-11 09:00N 67°17' E 014°22'0 0.0
2017-Aug-11 08:30N 67°17' E 014°22'0 0.0
2017-Aug-11 08:01N 67°17' E 014°22'1325.8
2017-Aug-11 07:31N 67°29' E 014°36'1427.5
2017-Aug-11 07:00N 67°42' E 014°43'815.9
2017-Aug-11 06:31N 67°50' E 014°47'1019.1
2017-Aug-11 06:00N 67°54' E 015°11'816.0
2017-Aug-11 05:30N 68°01' E 015°17'1426.9
2017-Aug-11 05:00N 68°08' E 014°45'714.1
2017-Aug-11 04:30N 68°14' E 014°34'0 0.0
2017-Aug-11 04:00N 68°14' E 014°34'0 0.0
2017-Aug-11 03:30N 68°14' E 014°34'0 0.0
2017-Aug-11 03:00N 68°14' E 014°34'0 0.0
2017-Aug-11 02:30N 68°14' E 014°34'0 0.0
2017-Aug-11 02:00N 68°14' E 014°34'0 0.0
2017-Aug-11 01:30N 68°14' E 014°34'0 0.0
2017-Aug-11 01:00N 68°14' E 014°34'0 0.0
2017-Aug-11 00:30N 68°14' E 014°34'0 0.0
2017-Aug-11 00:00N 68°14' E 014°34'0 0.0
2017-Aug-10 23:30N 68°14' E 014°34'0 0.0
2017-Aug-10 23:00N 68°14' E 014°34'0 0.0
2017-Aug-10 22:30N 68°14' E 014°34'0 0.0
2017-Aug-10 22:00N 68°14' E 014°34'0 0.0
2017-Aug-10 21:30N 68°14' E 014°34'0 0.0
2017-Aug-10 20:59N 68°14' E 014°34'0 0.0
2017-Aug-10 20:30N 68°14' E 014°34'0 0.0
2017-Aug-10 20:00N 68°14' E 014°34'0 0.0
2017-Aug-10 19:30N 68°14' E 014°34'0 0.0
2017-Aug-10 19:00N 68°14' E 014°34'4 9.0
2017-Aug-10 18:31N 68°10' E 014°40'1222.8
2017-Aug-10 18:00N 68°04' E 015°06'815.8
2017-Aug-10 17:30N 67°58' E 015°20'918.6
2017-Aug-10 17:00N 67°54' E 014°58'816.2
2017-Aug-10 16:30N 67°48' E 014°44'1223.0
2017-Aug-10 16:00N 67°36' E 014°38'1530.2
2017-Aug-10 15:31N 67°23' E 014°25'611.3
2017-Aug-10 15:01N 67°17' E 014°22'0 0.0
2017-Aug-10 14:31N 67°17' E 014°22'0 0.0
2017-Aug-10 14:01N 67°17' E 014°22'0 0.0
2017-Aug-10 13:30N 67°17' E 014°22'0 0.0
2017-Aug-10 13:00N 67°17' E 014°22'0 0.0
2017-Aug-10 12:31N 67°17' E 014°22'0 0.0
2017-Aug-10 12:01N 67°17' E 014°22'0 0.0
2017-Aug-10 11:31N 67°17' E 014°22'0 0.0
2017-Aug-10 11:00N 67°17' E 014°22'0 0.0
2017-Aug-10 10:30N 67°17' E 014°22'0 0.0
2017-Aug-10 10:01N 67°17' E 014°22'0 0.0
2017-Aug-10 09:30N 67°17' E 014°22'0 0.0
2017-Aug-10 09:01N 67°17' E 014°22'0 0.8
2017-Aug-10 08:30N 67°17' E 014°23'0 0.6
2017-Aug-10 08:01N 67°18' E 014°22'1630.9
2017-Aug-10 07:30N 67°33' E 014°33'1224.9
2017-Aug-10 07:00N 67°44' E 014°46'714.2
2017-Aug-10 06:30N 67°51' E 014°48'918.8
2017-Aug-10 06:00N 67°54' E 015°11'815.3
2017-Aug-10 05:30N 68°02' E 015°17'1428.8
2017-Aug-10 05:00N 68°08' E 014°43'613.1
2017-Aug-10 04:30N 68°14' E 014°34'0 0.1
2017-Aug-10 04:00N 68°14' E 014°34'0 0.0
2017-Aug-10 03:30N 68°14' E 014°34'0 0.0
2017-Aug-10 03:00N 68°14' E 014°34'0 0.0
2017-Aug-10 02:29N 68°14' E 014°34'0 0.0
2017-Aug-10 02:00N 68°14' E 014°34'0 0.0
2017-Aug-10 01:30N 68°14' E 014°34'0 0.0
2017-Aug-10 01:00N 68°14' E 014°34'0 0.0
2017-Aug-10 00:30N 68°14' E 014°34'0 0.0
2017-Aug-10 00:00N 68°14' E 014°34'0 0.0
2017-Aug-09 23:30N 68°14' E 014°34'0 0.0
2017-Aug-09 23:00N 68°14' E 014°34'0 0.0
2017-Aug-09 22:30N 68°14' E 014°34'0 0.0
2017-Aug-09 22:00N 68°14' E 014°34'0 0.0
2017-Aug-09 21:30N 68°14' E 014°34'0 0.0
2017-Aug-09 21:00N 68°14' E 014°34'0 0.0
2017-Aug-09 20:30N 68°14' E 014°34'0 0.0
2017-Aug-09 19:59N 68°14' E 014°34'0 0.1
2017-Aug-09 19:30N 68°14' E 014°34'0 0.1
2017-Aug-09 19:00N 68°14' E 014°34'4 8.8
2017-Aug-09 18:30N 68°10' E 014°40'1122.2
2017-Aug-09 18:00N 68°04' E 015°06'817.1
2017-Aug-09 17:30N 67°58' E 015°20'918.1
2017-Aug-09 17:00N 67°54' E 014°58'1019.4
2017-Aug-09 16:30N 67°46' E 014°43'918.7
2017-Aug-09 16:00N 67°37' E 014°39'1529.4
2017-Aug-09 15:30N 67°23' E 014°26'612.9
2017-Aug-09 15:00N 67°17' E 014°22'0 0.0
2017-Aug-09 14:30N 67°17' E 014°22'0 0.0
2017-Aug-09 14:00N 67°17' E 014°22'0 0.0
2017-Aug-09 13:30N 67°17' E 014°22'0 0.0
2017-Aug-09 13:00N 67°17' E 014°22'0 0.0
2017-Aug-09 12:30N 67°17' E 014°22'0 0.0
2017-Aug-09 12:00N 67°17' E 014°22'0 0.0
2017-Aug-09 11:30N 67°17' E 014°22'0 0.0
2017-Aug-09 11:00N 67°17' E 014°22'0 0.0
2017-Aug-09 10:30N 67°17' E 014°22'0 0.0
2017-Aug-09 10:00N 67°17' E 014°22'1224.0
2017-Aug-09 09:30N 67°08' E 013°60'1224.8
2017-Aug-09 09:01N 66°60' E 013°38'612.5
2017-Aug-09 08:30N 66°53' E 013°39'714.3
2017-Aug-09 08:00N 66°48' E 013°27'713.3
2017-Aug-09 07:30N 66°43' E 013°17'611.9
2017-Aug-09 07:00N 66°39' E 013°04'917.7
2017-Aug-09 06:30N 66°31' E 013°00'816.9
2017-Aug-09 06:01N 66°24' E 012°49'1224.2
2017-Aug-09 05:30N 66°12' E 013°00'1224.7
2017-Aug-09 05:00N 66°05' E 012°35'4 7.7
2017-Aug-09 04:30N 66°01' E 012°38'0 0.0
2017-Aug-09 04:00N 66°01' E 012°38'0 0.0
2017-Aug-09 03:30N 66°01' E 012°38'0 0.0
2017-Aug-09 03:00N 66°01' E 012°38'0 0.0
2017-Aug-09 02:29N 66°01' E 012°38'0 0.0
2017-Aug-09 02:00N 66°01' E 012°38'0 0.0
2017-Aug-09 01:30N 66°01' E 012°38'0 0.0
2017-Aug-09 01:00N 66°01' E 012°38'0 0.0
2017-Aug-09 00:30N 66°01' E 012°38'0 0.0
2017-Aug-09 00:00N 66°01' E 012°38'0 0.0
2017-Aug-08 23:30N 66°01' E 012°38'0 0.0
2017-Aug-08 23:00N 66°01' E 012°38'0 0.0
2017-Aug-08 22:30N 66°01' E 012°38'0 0.0
2017-Aug-08 22:00N 66°01' E 012°38'0 0.0
2017-Aug-08 21:30N 66°01' E 012°38'0 0.0
2017-Aug-08 21:00N 66°01' E 012°38'0 0.0
2017-Aug-08 20:30N 66°01' E 012°38'0 0.0
2017-Aug-08 20:00N 66°01' E 012°38'4 7.5
2017-Aug-08 19:30N 66°05' E 012°35'1224.9
2017-Aug-08 19:00N 66°12' E 013°00'1019.7
2017-Aug-08 18:30N 66°21' E 012°52'712.8
2017-Aug-08 18:00N 66°28' E 012°53'714.4
2017-Aug-08 17:30N 66°34' E 012°59'611.7
2017-Aug-08 17:00N 66°39' E 013°07'611.2
2017-Aug-08 16:30N 66°44' E 013°13'916.7
2017-Aug-08 16:00N 66°49' E 013°31'613.0
2017-Aug-08 15:31N 66°55' E 013°30'917.7
2017-Aug-08 15:01N 67°02' E 013°45'918.0
2017-Aug-08 14:30N 67°07' E 014°03'1224.6
2017-Aug-08 14:01N 67°17' E 014°22'  

Dump ship's entire track history